In Rescue
 
Open Full Screen Window  High Contrast Mode
Wind Gusting 17 knots
10
March 01, 2024 3:35 PM CST
Weather Information
Wind Direction
  190 °
Wind Speed
  10 kt (12 mph)
Wind Gust
  17 kt (20 mph)
Altimeter
29.65 in
Visibility
10 SM
Temperature
11° C
52° F
Dewpoint
-01° C
30° F
Humidity
43%
Sky Condition
Clear
VFR

METAR KY49 012135Z AUTO 19010G17KT 10SM CLR 11/M01 A2965 RMK AO2 T01081012

FAA Disclaimer: The data displayed is for advisory purposes only and is not to be used for flight planning or operations.